sensor_id;sensor_type;location;lat;lon;timestamp;P1;durP1;ratioP1;P2;durP2;ratioP2
49071;SDS011;74284;52.610;10.236;2024-03-08T00:01:39;27.33;;;15.77;;
49071;SDS011;74284;52.610;10.236;2024-03-08T00:04:04;22.63;;;14.63;;
49071;SDS011;74284;52.610;10.236;2024-03-08T00:06:31;24.23;;;14.65;;
49071;SDS011;74284;52.610;10.236;2024-03-08T00:08:56;25.95;;;15.30;;
49071;SDS011;74284;52.610;10.236;2024-03-08T00:11:22;26.45;;;16.33;;
49071;SDS011;74284;52.610;10.236;2024-03-08T00:13:50;23.13;;;14.90;;
49071;SDS011;74284;52.610;10.236;2024-03-08T00:16:17;23.17;;;14.25;;
49071;SDS011;74284;52.610;10.236;2024-03-08T00:18:44;24.48;;;14.75;;
49071;SDS011;74284;52.610;10.236;2024-03-08T00:21:09;27.80;;;16.55;;
49071;SDS011;74284;52.610;10.236;2024-03-08T00:23:35;26.73;;;15.63;;
49071;SDS011;74284;52.610;10.236;2024-03-08T00:26:00;26.10;;;15.50;;
49071;SDS011;74284;52.610;10.236;2024-03-08T00:28:25;28.73;;;16.70;;
49071;SDS011;74284;52.610;10.236;2024-03-08T00:30:52;23.95;;;15.45;;
49071;SDS011;74284;52.610;10.236;2024-03-08T00:33:17;26.00;;;15.90;;
49071;SDS011;74284;52.610;10.236;2024-03-08T00:35:43;28.83;;;16.17;;
49071;SDS011;74284;52.610;10.236;2024-03-08T00:38:08;25.67;;;14.77;;
49071;SDS011;74284;52.610;10.236;2024-03-08T00:40:33;26.53;;;15.73;;
49071;SDS011;74284;52.610;10.236;2024-03-08T00:42:58;25.67;;;15.87;;
49071;SDS011;74284;52.610;10.236;2024-03-08T00:45:24;27.47;;;17.03;;
49071;SDS011;74284;52.610;10.236;2024-03-08T00:47:49;28.03;;;16.10;;
49071;SDS011;74284;52.610;10.236;2024-03-08T00:50:14;28.42;;;16.63;;
49071;SDS011;74284;52.610;10.236;2024-03-08T00:52:40;30.52;;;18.17;;
49071;SDS011;74284;52.610;10.236;2024-03-08T00:55:05;28.40;;;17.00;;
49071;SDS011;74284;52.610;10.236;2024-03-08T00:57:32;28.20;;;16.58;;
49071;SDS011;74284;52.610;10.236;2024-03-08T00:59:58;31.05;;;17.20;;
49071;SDS011;74284;52.610;10.236;2024-03-08T01:02:23;30.50;;;17.33;;
49071;SDS011;74284;52.610;10.236;2024-03-08T01:04:49;31.27;;;16.77;;
49071;SDS011;74284;52.610;10.236;2024-03-08T01:07:15;28.25;;;17.15;;
49071;SDS011;74284;52.610;10.236;2024-03-08T01:09:40;28.93;;;17.27;;
49071;SDS011;74284;52.610;10.236;2024-03-08T01:12:05;26.97;;;17.33;;
49071;SDS011;74284;52.610;10.236;2024-03-08T01:14:32;28.42;;;16.63;;
49071;SDS011;74284;52.610;10.236;2024-03-08T01:16:58;31.42;;;17.73;;
49071;SDS011;74284;52.610;10.236;2024-03-08T01:19:24;31.77;;;17.27;;
49071;SDS011;74284;52.610;10.236;2024-03-08T01:21:49;29.38;;;17.85;;
49071;SDS011;74284;52.610;10.236;2024-03-08T01:24:14;29.60;;;18.00;;
49071;SDS011;74284;52.610;10.236;2024-03-08T01:26:40;31.17;;;18.40;;
49071;SDS011;74284;52.610;10.236;2024-03-08T01:29:05;31.93;;;19.27;;
49071;SDS011;74284;52.610;10.236;2024-03-08T01:31:30;30.33;;;18.83;;
49071;SDS011;74284;52.610;10.236;2024-03-08T01:33:56;30.83;;;17.58;;
49071;SDS011;74284;52.610;10.236;2024-03-08T01:36:22;29.45;;;18.13;;
49071;SDS011;74284;52.610;10.236;2024-03-08T01:38:48;28.40;;;15.95;;
49071;SDS011;74284;52.610;10.236;2024-03-08T01:41:13;28.90;;;17.03;;
49071;SDS011;74284;52.610;10.236;2024-03-08T01:43:41;31.90;;;17.10;;
49071;SDS011;74284;52.610;10.236;2024-03-08T01:46:06;28.23;;;17.57;;
49071;SDS011;74284;52.610;10.236;2024-03-08T01:48:34;27.77;;;16.77;;
49071;SDS011;74284;52.610;10.236;2024-03-08T01:50:59;30.05;;;18.10;;
49071;SDS011;74284;52.610;10.236;2024-03-08T01:53:25;33.63;;;19.08;;
49071;SDS011;74284;52.610;10.236;2024-03-08T01:55:52;29.83;;;17.70;;
49071;SDS011;74284;52.610;10.236;2024-03-08T01:58:21;31.25;;;18.98;;
49071;SDS011;74284;52.610;10.236;2024-03-08T02:00:48;28.33;;;16.42;;
49071;SDS011;74284;52.610;10.236;2024-03-08T02:03:16;29.75;;;17.88;;
49071;SDS011;74284;52.610;10.236;2024-03-08T02:05:42;30.92;;;17.17;;
49071;SDS011;74284;52.610;10.236;2024-03-08T02:10:37;29.75;;;17.95;;
49071;SDS011;74284;52.610;10.236;2024-03-08T02:13:03;33.08;;;18.42;;
49071;SDS011;74284;52.610;10.236;2024-03-08T02:20:42;31.67;;;17.98;;
49071;SDS011;74284;52.610;10.236;2024-03-08T02:23:08;34.75;;;19.05;;
49071;SDS011;74284;52.610;10.236;2024-03-08T02:25:33;29.30;;;17.55;;
49071;SDS011;74284;52.610;10.236;2024-03-08T02:27:59;29.80;;;17.80;;
49071;SDS011;74284;52.610;10.236;2024-03-08T02:30:24;30.50;;;18.00;;
49071;SDS011;74284;52.610;10.236;2024-03-08T02:32:54;32.97;;;18.15;;
49071;SDS011;74284;52.610;10.236;2024-03-08T02:35:20;32.40;;;18.88;;
49071;SDS011;74284;52.610;10.236;2024-03-08T02:37:45;30.58;;;18.13;;
49071;SDS011;74284;52.610;10.236;2024-03-08T02:40:12;28.88;;;17.45;;
49071;SDS011;74284;52.610;10.236;2024-03-08T02:42:38;32.72;;;19.42;;
49071;SDS011;74284;52.610;10.236;2024-03-08T02:45:03;31.13;;;18.10;;
49071;SDS011;74284;52.610;10.236;2024-03-08T02:47:30;30.80;;;18.98;;
49071;SDS011;74284;52.610;10.236;2024-03-08T02:49:56;31.05;;;18.15;;
49071;SDS011;74284;52.610;10.236;2024-03-08T02:52:21;29.52;;;18.90;;
49071;SDS011;74284;52.610;10.236;2024-03-08T02:54:47;31.38;;;18.05;;
49071;SDS011;74284;52.610;10.236;2024-03-08T02:59:39;32.50;;;20.15;;
49071;SDS011;74284;52.610;10.236;2024-03-08T03:02:05;34.47;;;19.92;;
49071;SDS011;74284;52.610;10.236;2024-03-08T03:06:57;34.22;;;18.90;;
49071;SDS011;74284;52.610;10.236;2024-03-08T03:09:23;33.30;;;19.00;;
49071;SDS011;74284;52.610;10.236;2024-03-08T03:11:52;32.83;;;19.50;;
49071;SDS011;74284;52.610;10.236;2024-03-08T03:14:18;33.00;;;19.45;;
49071;SDS011;74284;52.610;10.236;2024-03-08T03:16:44;35.15;;;20.17;;
49071;SDS011;74284;52.610;10.236;2024-03-08T03:19:10;34.78;;;19.70;;
49071;SDS011;74284;52.610;10.236;2024-03-08T03:21:36;35.25;;;20.90;;
49071;SDS011;74284;52.610;10.236;2024-03-08T03:24:03;36.67;;;20.27;;
49071;SDS011;74284;52.610;10.236;2024-03-08T03:28:56;40.40;;;20.67;;
49071;SDS011;74284;52.610;10.236;2024-03-08T03:33:49;37.33;;;21.33;;
49071;SDS011;74284;52.610;10.236;2024-03-08T03:36:16;34.83;;;20.27;;
49071;SDS011;74284;52.610;10.236;2024-03-08T03:38:42;35.28;;;20.67;;
49071;SDS011;74284;52.610;10.236;2024-03-08T03:41:08;37.45;;;21.10;;
49071;SDS011;74284;52.610;10.236;2024-03-08T03:43:37;43.22;;;21.35;;
49071;SDS011;74284;52.610;10.236;2024-03-08T03:46:07;39.63;;;22.08;;
49071;SDS011;74284;52.610;10.236;2024-03-08T03:48:32;35.10;;;19.95;;
49071;SDS011;74284;52.610;10.236;2024-03-08T03:50:58;36.55;;;21.42;;
49071;SDS011;74284;52.610;10.236;2024-03-08T03:53:23;35.47;;;20.43;;
49071;SDS011;74284;52.610;10.236;2024-03-08T03:55:50;40.30;;;22.98;;
49071;SDS011;74284;52.610;10.236;2024-03-08T03:58:16;41.28;;;22.27;;
49071;SDS011;74284;52.610;10.236;2024-03-08T04:00:47;35.20;;;21.60;;
49071;SDS011;74284;52.610;10.236;2024-03-08T04:03:12;37.55;;;22.10;;
49071;SDS011;74284;52.610;10.236;2024-03-08T04:05:37;37.47;;;21.17;;
49071;SDS011;74284;52.610;10.236;2024-03-08T04:08:04;38.45;;;22.42;;
49071;SDS011;74284;52.610;10.236;2024-03-08T04:10:29;40.42;;;23.60;;
49071;SDS011;74284;52.610;10.236;2024-03-08T04:12:54;38.20;;;22.57;;
49071;SDS011;74284;52.610;10.236;2024-03-08T04:15:21;37.80;;;22.23;;
49071;SDS011;74284;52.610;10.236;2024-03-08T04:20:13;37.70;;;21.08;;
49071;SDS011;74284;52.610;10.236;2024-03-08T04:22:39;37.88;;;21.58;;
49071;SDS011;74284;52.610;10.236;2024-03-08T04:25:05;38.35;;;22.25;;
49071;SDS011;74284;52.610;10.236;2024-03-08T04:27:32;38.58;;;22.23;;
49071;SDS011;74284;52.610;10.236;2024-03-08T04:29:58;35.65;;;20.20;;
49071;SDS011;74284;52.610;10.236;2024-03-08T04:32:24;35.67;;;22.85;;
49071;SDS011;74284;52.610;10.236;2024-03-08T04:34:49;40.53;;;22.70;;
49071;SDS011;74284;52.610;10.236;2024-03-08T04:37:15;37.17;;;22.33;;
49071;SDS011;74284;52.610;10.236;2024-03-08T04:39:43;42.63;;;21.63;;
49071;SDS011;74284;52.610;10.236;2024-03-08T04:42:08;36.03;;;21.30;;
49071;SDS011;74284;52.610;10.236;2024-03-08T04:44:39;36.80;;;22.80;;
49071;SDS011;74284;52.610;10.236;2024-03-08T04:47:04;36.58;;;22.38;;
49071;SDS011;74284;52.610;10.236;2024-03-08T04:51:56;33.40;;;21.77;;
49071;SDS011;74284;52.610;10.236;2024-03-08T04:54:21;35.90;;;22.70;;
49071;SDS011;74284;52.610;10.236;2024-03-08T04:56:47;37.75;;;22.80;;
49071;SDS011;74284;52.610;10.236;2024-03-08T04:59:12;34.83;;;21.80;;
49071;SDS011;74284;52.610;10.236;2024-03-08T05:01:38;38.78;;;21.08;;
49071;SDS011;74284;52.610;10.236;2024-03-08T05:04:04;34.92;;;20.83;;
49071;SDS011;74284;52.610;10.236;2024-03-08T05:06:45;37.22;;;22.30;;
49071;SDS011;74284;52.610;10.236;2024-03-08T05:09:12;38.70;;;22.15;;
49071;SDS011;74284;52.610;10.236;2024-03-08T05:11:41;40.85;;;22.00;;
49071;SDS011;74284;52.610;10.236;2024-03-08T05:14:09;38.05;;;22.05;;
49071;SDS011;74284;52.610;10.236;2024-03-08T05:16:35;36.42;;;22.13;;
49071;SDS011;74284;52.610;10.236;2024-03-08T05:19:01;35.67;;;22.67;;
49071;SDS011;74284;52.610;10.236;2024-03-08T05:23:53;36.10;;;20.17;;
49071;SDS011;74284;52.610;10.236;2024-03-08T05:26:19;34.97;;;21.77;;
49071;SDS011;74284;52.610;10.236;2024-03-08T05:28:44;39.22;;;23.67;;
49071;SDS011;74284;52.610;10.236;2024-03-08T05:31:10;36.25;;;21.77;;
49071;SDS011;74284;52.610;10.236;2024-03-08T05:33:35;37.22;;;21.65;;
49071;SDS011;74284;52.610;10.236;2024-03-08T05:36:00;38.65;;;21.95;;
49071;SDS011;74284;52.610;10.236;2024-03-08T05:38:27;34.55;;;21.40;;
49071;SDS011;74284;52.610;10.236;2024-03-08T05:40:53;34.45;;;19.70;;
49071;SDS011;74284;52.610;10.236;2024-03-08T05:43:19;39.58;;;22.90;;
49071;SDS011;74284;52.610;10.236;2024-03-08T05:45:45;37.22;;;22.25;;
49071;SDS011;74284;52.610;10.236;2024-03-08T05:48:10;35.28;;;21.42;;
49071;SDS011;74284;52.610;10.236;2024-03-08T05:50:37;37.45;;;21.95;;
49071;SDS011;74284;52.610;10.236;2024-03-08T05:53:03;33.75;;;20.27;;
49071;SDS011;74284;52.610;10.236;2024-03-08T05:55:32;41.20;;;22.42;;
49071;SDS011;74284;52.610;10.236;2024-03-08T05:58:00;36.33;;;21.67;;
49071;SDS011;74284;52.610;10.236;2024-03-08T06:00:26;37.00;;;21.30;;
49071;SDS011;74284;52.610;10.236;2024-03-08T06:02:51;40.22;;;23.58;;
49071;SDS011;74284;52.610;10.236;2024-03-08T06:05:16;37.10;;;22.63;;
49071;SDS011;74284;52.610;10.236;2024-03-08T06:07:42;38.08;;;22.92;;
49071;SDS011;74284;52.610;10.236;2024-03-08T06:10:08;38.17;;;22.90;;
49071;SDS011;74284;52.610;10.236;2024-03-08T06:12:38;40.53;;;23.10;;
49071;SDS011;74284;52.610;10.236;2024-03-08T06:15:07;39.38;;;21.52;;
49071;SDS011;74284;52.610;10.236;2024-03-08T06:17:33;36.13;;;21.23;;
49071;SDS011;74284;52.610;10.236;2024-03-08T06:19:59;36.35;;;22.40;;
49071;SDS011;74284;52.610;10.236;2024-03-08T06:22:25;36.97;;;21.27;;
49071;SDS011;74284;52.610;10.236;2024-03-08T06:24:50;42.70;;;23.43;;
49071;SDS011;74284;52.610;10.236;2024-03-08T06:27:16;37.60;;;22.05;;
49071;SDS011;74284;52.610;10.236;2024-03-08T06:29:42;37.60;;;22.75;;
49071;SDS011;74284;52.610;10.236;2024-03-08T06:32:07;40.45;;;24.20;;
49071;SDS011;74284;52.610;10.236;2024-03-08T06:34:33;40.15;;;22.95;;
49071;SDS011;74284;52.610;10.236;2024-03-08T06:37:01;38.42;;;22.20;;
49071;SDS011;74284;52.610;10.236;2024-03-08T06:39:27;39.08;;;22.88;;
49071;SDS011;74284;52.610;10.236;2024-03-08T06:41:56;38.38;;;23.23;;
49071;SDS011;74284;52.610;10.236;2024-03-08T06:44:22;39.33;;;22.50;;
49071;SDS011;74284;52.610;10.236;2024-03-08T06:46:47;41.30;;;24.27;;
49071;SDS011;74284;52.610;10.236;2024-03-08T06:49:13;41.78;;;23.25;;
49071;SDS011;74284;52.610;10.236;2024-03-08T06:51:38;38.25;;;23.45;;
49071;SDS011;74284;52.610;10.236;2024-03-08T06:54:06;39.10;;;24.17;;
49071;SDS011;74284;52.610;10.236;2024-03-08T06:56:33;39.38;;;22.38;;
49071;SDS011;74284;52.610;10.236;2024-03-08T06:58:59;37.60;;;22.38;;
49071;SDS011;74284;52.610;10.236;2024-03-08T07:01:24;38.93;;;23.23;;
49071;SDS011;74284;52.610;10.236;2024-03-08T07:03:49;38.72;;;22.48;;
49071;SDS011;74284;52.610;10.236;2024-03-08T07:06:17;35.95;;;22.83;;
49071;SDS011;74284;52.610;10.236;2024-03-08T07:08:44;44.42;;;24.13;;
49071;SDS011;74284;52.610;10.236;2024-03-08T07:11:10;36.47;;;23.15;;
49071;SDS011;74284;52.610;10.236;2024-03-08T07:13:36;40.20;;;23.08;;
49071;SDS011;74284;52.610;10.236;2024-03-08T07:16:04;36.65;;;23.10;;
49071;SDS011;74284;52.610;10.236;2024-03-08T07:18:30;39.40;;;22.33;;
49071;SDS011;74284;52.610;10.236;2024-03-08T07:20:56;38.33;;;24.30;;
49071;SDS011;74284;52.610;10.236;2024-03-08T07:23:22;38.40;;;23.27;;
49071;SDS011;74284;52.610;10.236;2024-03-08T07:26:06;36.15;;;22.40;;
49071;SDS011;74284;52.610;10.236;2024-03-08T07:28:31;36.53;;;22.87;;
49071;SDS011;74284;52.610;10.236;2024-03-08T07:30:57;40.97;;;24.20;;
49071;SDS011;74284;52.610;10.236;2024-03-08T07:33:38;36.75;;;22.52;;
49071;SDS011;74284;52.610;10.236;2024-03-08T07:36:03;38.38;;;23.08;;
49071;SDS011;74284;52.610;10.236;2024-03-08T07:40:55;38.42;;;23.25;;
49071;SDS011;74284;52.610;10.236;2024-03-08T07:43:22;39.63;;;22.77;;
49071;SDS011;74284;52.610;10.236;2024-03-08T07:45:47;41.63;;;24.45;;
49071;SDS011;74284;52.610;10.236;2024-03-08T07:48:13;38.33;;;23.58;;
49071;SDS011;74284;52.610;10.236;2024-03-08T07:50:38;37.93;;;24.77;;
49071;SDS011;74284;52.610;10.236;2024-03-08T07:53:05;37.70;;;24.08;;
49071;SDS011;74284;52.610;10.236;2024-03-08T07:55:33;38.17;;;23.52;;
49071;SDS011;74284;52.610;10.236;2024-03-08T07:58:00;39.75;;;24.80;;
49071;SDS011;74284;52.610;10.236;2024-03-08T08:00:25;38.72;;;23.60;;
49071;SDS011;74284;52.610;10.236;2024-03-08T08:02:52;38.67;;;24.83;;
49071;SDS011;74284;52.610;10.236;2024-03-08T08:05:18;36.45;;;22.88;;
49071;SDS011;74284;52.610;10.236;2024-03-08T08:07:44;38.15;;;24.23;;
49071;SDS011;74284;52.610;10.236;2024-03-08T08:10:11;37.10;;;23.20;;
49071;SDS011;74284;52.610;10.236;2024-03-08T08:12:46;37.45;;;22.48;;
49071;SDS011;74284;52.610;10.236;2024-03-08T08:15:15;36.72;;;23.30;;
49071;SDS011;74284;52.610;10.236;2024-03-08T08:17:49;33.95;;;22.23;;
49071;SDS011;74284;52.610;10.236;2024-03-08T08:20:14;37.13;;;23.88;;
49071;SDS011;74284;52.610;10.236;2024-03-08T08:22:40;32.60;;;20.48;;
49071;SDS011;74284;52.610;10.236;2024-03-08T08:25:06;35.33;;;21.17;;
49071;SDS011;74284;52.610;10.236;2024-03-08T08:27:32;34.65;;;21.77;;
49071;SDS011;74284;52.610;10.236;2024-03-08T08:29:58;37.55;;;23.13;;
49071;SDS011;74284;52.610;10.236;2024-03-08T08:32:23;39.25;;;23.90;;
49071;SDS011;74284;52.610;10.236;2024-03-08T08:34:48;34.65;;;21.55;;
49071;SDS011;74284;52.610;10.236;2024-03-08T08:37:14;32.83;;;21.95;;
49071;SDS011;74284;52.610;10.236;2024-03-08T08:39:39;37.33;;;22.92;;
49071;SDS011;74284;52.610;10.236;2024-03-08T08:42:04;35.63;;;21.43;;
49071;SDS011;74284;52.610;10.236;2024-03-08T08:44:30;33.95;;;23.45;;
49071;SDS011;74284;52.610;10.236;2024-03-08T08:46:56;36.50;;;23.20;;
49071;SDS011;74284;52.610;10.236;2024-03-08T08:49:22;39.13;;;23.20;;
49071;SDS011;74284;52.610;10.236;2024-03-08T08:51:52;35.72;;;22.35;;
49071;SDS011;74284;52.610;10.236;2024-03-08T08:54:17;37.20;;;22.38;;
49071;SDS011;74284;52.610;10.236;2024-03-08T08:56:43;34.45;;;22.35;;
49071;SDS011;74284;52.610;10.236;2024-03-08T08:59:09;37.90;;;23.90;;
49071;SDS011;74284;52.610;10.236;2024-03-08T09:01:35;32.13;;;22.23;;
49071;SDS011;74284;52.610;10.236;2024-03-08T09:04:00;35.08;;;23.23;;
49071;SDS011;74284;52.610;10.236;2024-03-08T09:06:25;38.75;;;22.73;;
49071;SDS011;74284;52.610;10.236;2024-03-08T09:08:51;31.97;;;20.80;;
49071;SDS011;74284;52.610;10.236;2024-03-08T09:11:16;33.00;;;21.77;;
49071;SDS011;74284;52.610;10.236;2024-03-08T09:13:44;33.93;;;20.97;;
49071;SDS011;74284;52.610;10.236;2024-03-08T09:16:10;33.78;;;21.38;;
49071;SDS011;74284;52.610;10.236;2024-03-08T09:18:35;36.22;;;22.95;;
49071;SDS011;74284;52.610;10.236;2024-03-08T09:21:01;33.90;;;21.50;;
49071;SDS011;74284;52.610;10.236;2024-03-08T09:23:27;35.80;;;23.58;;
49071;SDS011;74284;52.610;10.236;2024-03-08T09:25:55;34.35;;;23.23;;
49071;SDS011;74284;52.610;10.236;2024-03-08T09:28:22;34.25;;;23.23;;
49071;SDS011;74284;52.610;10.236;2024-03-08T09:30:48;31.30;;;21.35;;
49071;SDS011;74284;52.610;10.236;2024-03-08T09:33:13;35.08;;;23.33;;
49071;SDS011;74284;52.610;10.236;2024-03-08T09:35:42;35.53;;;21.77;;
49071;SDS011;74284;52.610;10.236;2024-03-08T09:38:07;32.22;;;21.33;;
49071;SDS011;74284;52.610;10.236;2024-03-08T09:40:37;31.00;;;21.02;;
49071;SDS011;74284;52.610;10.236;2024-03-08T09:43:03;31.40;;;21.85;;
49071;SDS011;74284;52.610;10.236;2024-03-08T09:45:28;34.45;;;21.45;;
49071;SDS011;74284;52.610;10.236;2024-03-08T09:48:00;32.85;;;21.77;;
49071;SDS011;74284;52.610;10.236;2024-03-08T09:50:26;33.15;;;21.98;;
49071;SDS011;74284;52.610;10.236;2024-03-08T09:55:18;31.73;;;20.02;;
49071;SDS011;74284;52.610;10.236;2024-03-08T09:57:47;33.85;;;22.00;;
49071;SDS011;74284;52.610;10.236;2024-03-08T10:00:33;31.92;;;21.60;;
49071;SDS011;74284;52.610;10.236;2024-03-08T10:03:01;31.33;;;21.00;;
49071;SDS011;74284;52.610;10.236;2024-03-08T10:05:28;33.55;;;21.60;;
49071;SDS011;74284;52.610;10.236;2024-03-08T10:07:55;31.85;;;21.10;;
49071;SDS011;74284;52.610;10.236;2024-03-08T10:10:20;33.97;;;22.40;;
49071;SDS011;74284;52.610;10.236;2024-03-08T10:12:46;33.20;;;22.40;;
49071;SDS011;74284;52.610;10.236;2024-03-08T10:15:14;33.53;;;23.90;;
49071;SDS011;74284;52.610;10.236;2024-03-08T10:17:41;36.53;;;23.58;;
49071;SDS011;74284;52.610;10.236;2024-03-08T10:20:17;36.88;;;24.27;;
49071;SDS011;74284;52.610;10.236;2024-03-08T10:22:43;35.95;;;22.85;;
49071;SDS011;74284;52.610;10.236;2024-03-08T10:25:12;34.67;;;22.75;;
49071;SDS011;74284;52.610;10.236;2024-03-08T10:27:38;33.63;;;23.33;;
49071;SDS011;74284;52.610;10.236;2024-03-08T10:30:06;33.63;;;22.92;;
49071;SDS011;74284;52.610;10.236;2024-03-08T10:32:35;33.25;;;20.88;;
49071;SDS011;74284;52.610;10.236;2024-03-08T10:35:00;34.58;;;23.35;;
49071;SDS011;74284;52.610;10.236;2024-03-08T10:37:25;31.13;;;20.67;;
49071;SDS011;74284;52.610;10.236;2024-03-08T10:40:02;32.97;;;22.90;;
49071;SDS011;74284;52.610;10.236;2024-03-08T10:42:35;35.67;;;22.67;;
49071;SDS011;74284;52.610;10.236;2024-03-08T10:45:07;37.63;;;23.77;;
49071;SDS011;74284;52.610;10.236;2024-03-08T10:47:40;33.42;;;22.52;;
49071;SDS011;74284;52.610;10.236;2024-03-08T10:50:11;31.60;;;22.85;;
49071;SDS011;74284;52.610;10.236;2024-03-08T10:52:47;29.88;;;20.75;;
49071;SDS011;74284;52.610;10.236;2024-03-08T10:55:15;31.33;;;20.00;;
49071;SDS011;74284;52.610;10.236;2024-03-08T10:57:42;32.58;;;22.92;;
49071;SDS011;74284;52.610;10.236;2024-03-08T11:00:08;31.17;;;20.48;;
49071;SDS011;74284;52.610;10.236;2024-03-08T11:02:36;29.02;;;21.00;;
49071;SDS011;74284;52.610;10.236;2024-03-08T11:05:03;29.27;;;20.40;;
49071;SDS011;74284;52.610;10.236;2024-03-08T11:07:30;28.52;;;19.23;;
49071;SDS011;74284;52.610;10.236;2024-03-08T11:09:59;28.60;;;19.98;;
49071;SDS011;74284;52.610;10.236;2024-03-08T11:12:29;28.15;;;19.30;;
49071;SDS011;74284;52.610;10.236;2024-03-08T11:15:02;29.65;;;20.63;;
49071;SDS011;74284;52.610;10.236;2024-03-08T11:20:07;29.23;;;20.48;;
49071;SDS011;74284;52.610;10.236;2024-03-08T11:22:40;27.25;;;18.42;;
49071;SDS011;74284;52.610;10.236;2024-03-08T11:25:08;28.70;;;19.55;;
49071;SDS011;74284;52.610;10.236;2024-03-08T11:27:37;31.23;;;20.00;;
49071;SDS011;74284;52.610;10.236;2024-03-08T11:30:03;27.88;;;19.65;;
49071;SDS011;74284;52.610;10.236;2024-03-08T11:32:36;29.65;;;19.48;;
49071;SDS011;74284;52.610;10.236;2024-03-08T11:35:05;25.48;;;17.30;;
49071;SDS011;74284;52.610;10.236;2024-03-08T11:37:33;25.85;;;18.73;;
49071;SDS011;74284;52.610;10.236;2024-03-08T11:40:05;26.60;;;18.83;;
49071;SDS011;74284;52.610;10.236;2024-03-08T11:42:43;29.33;;;20.40;;
49071;SDS011;74284;52.610;10.236;2024-03-08T11:45:11;28.60;;;20.27;;
49071;SDS011;74284;52.610;10.236;2024-03-08T11:47:37;26.80;;;18.92;;
49071;SDS011;74284;52.610;10.236;2024-03-08T11:50:05;29.73;;;18.63;;
49071;SDS011;74284;52.610;10.236;2024-03-08T11:52:35;28.38;;;19.30;;
49071;SDS011;74284;52.610;10.236;2024-03-08T11:55:02;29.27;;;20.42;;
49071;SDS011;74284;52.610;10.236;2024-03-08T11:57:28;28.80;;;19.95;;
49071;SDS011;74284;52.610;10.236;2024-03-08T12:04:50;30.33;;;19.17;;
49071;SDS011;74284;52.610;10.236;2024-03-08T12:07:28;26.77;;;19.20;;
49071;SDS011;74284;52.610;10.236;2024-03-08T12:12:48;26.10;;;18.58;;
49071;SDS011;74284;52.610;10.236;2024-03-08T12:15:16;26.00;;;17.60;;
49071;SDS011;74284;52.610;10.236;2024-03-08T12:17:43;26.88;;;17.80;;
49071;SDS011;74284;52.610;10.236;2024-03-08T12:22:43;25.13;;;18.40;;
49071;SDS011;74284;52.610;10.236;2024-03-08T12:25:10;25.23;;;16.60;;
49071;SDS011;74284;52.610;10.236;2024-03-08T12:27:37;21.58;;;16.45;;
49071;SDS011;74284;52.610;10.236;2024-03-08T12:30:16;24.83;;;17.25;;
49071;SDS011;74284;52.610;10.236;2024-03-08T12:32:46;23.15;;;17.25;;
49071;SDS011;74284;52.610;10.236;2024-03-08T12:35:19;20.95;;;15.73;;
49071;SDS011;74284;52.610;10.236;2024-03-08T12:37:48;22.35;;;16.83;;
49071;SDS011;74284;52.610;10.236;2024-03-08T12:40:14;23.13;;;16.58;;
49071;SDS011;74284;52.610;10.236;2024-03-08T12:42:41;22.95;;;17.67;;
49071;SDS011;74284;52.610;10.236;2024-03-08T12:45:08;21.88;;;15.27;;
49071;SDS011;74284;52.610;10.236;2024-03-08T12:47:35;22.65;;;16.58;;
49071;SDS011;74284;52.610;10.236;2024-03-08T12:50:01;22.15;;;15.82;;
49071;SDS011;74284;52.610;10.236;2024-03-08T12:52:26;21.73;;;16.40;;
49071;SDS011;74284;52.610;10.236;2024-03-08T12:57:17;22.45;;;15.73;;
49071;SDS011;74284;52.610;10.236;2024-03-08T12:59:42;23.35;;;17.00;;
49071;SDS011;74284;52.610;10.236;2024-03-08T13:02:07;22.67;;;16.42;;
49071;SDS011;74284;52.610;10.236;2024-03-08T13:04:36;24.63;;;17.40;;
49071;SDS011;74284;52.610;10.236;2024-03-08T13:09:27;21.83;;;16.52;;
49071;SDS011;74284;52.610;10.236;2024-03-08T13:14:20;21.17;;;15.60;;
49071;SDS011;74284;52.610;10.236;2024-03-08T13:19:13;22.10;;;14.13;;
49071;SDS011;74284;52.610;10.236;2024-03-08T13:24:04;22.50;;;14.70;;
49071;SDS011;74284;52.610;10.236;2024-03-08T13:26:30;22.10;;;15.80;;
49071;SDS011;74284;52.610;10.236;2024-03-08T13:28:58;21.95;;;15.18;;
49071;SDS011;74284;52.610;10.236;2024-03-08T13:33:49;22.83;;;15.65;;
49071;SDS011;74284;52.610;10.236;2024-03-08T13:36:16;23.10;;;16.00;;
49071;SDS011;74284;52.610;10.236;2024-03-08T13:38:46;21.35;;;14.73;;
49071;SDS011;74284;52.610;10.236;2024-03-08T13:41:13;19.50;;;14.48;;
49071;SDS011;74284;52.610;10.236;2024-03-08T13:43:45;19.05;;;14.80;;
49071;SDS011;74284;52.610;10.236;2024-03-08T13:46:14;21.00;;;15.20;;
49071;SDS011;74284;52.610;10.236;2024-03-08T13:51:06;20.90;;;14.07;;
49071;SDS011;74284;52.610;10.236;2024-03-08T13:55:58;20.30;;;13.73;;
49071;SDS011;74284;52.610;10.236;2024-03-08T14:00:48;19.05;;;13.00;;
49071;SDS011;74284;52.610;10.236;2024-03-08T14:03:16;17.92;;;14.00;;
49071;SDS011;74284;52.610;10.236;2024-03-08T14:08:07;19.33;;;13.95;;
49071;SDS011;74284;52.610;10.236;2024-03-08T14:12:59;18.67;;;13.27;;
49071;SDS011;74284;52.610;10.236;2024-03-08T14:15:25;18.10;;;12.90;;
49071;SDS011;74284;52.610;10.236;2024-03-08T14:20:20;19.33;;;11.95;;
49071;SDS011;74284;52.610;10.236;2024-03-08T14:22:50;20.60;;;12.65;;
49071;SDS011;74284;52.610;10.236;2024-03-08T14:25:21;21.85;;;14.02;;
49071;SDS011;74284;52.610;10.236;2024-03-08T14:27:48;21.83;;;13.43;;
49071;SDS011;74284;52.610;10.236;2024-03-08T14:30:23;17.70;;;12.75;;
49071;SDS011;74284;52.610;10.236;2024-03-08T14:35:25;21.92;;;13.30;;
49071;SDS011;74284;52.610;10.236;2024-03-08T14:37:51;21.20;;;14.57;;
49071;SDS011;74284;52.610;10.236;2024-03-08T14:40:17;18.23;;;12.80;;
49071;SDS011;74284;52.610;10.236;2024-03-08T14:42:47;20.70;;;13.70;;
49071;SDS011;74284;52.610;10.236;2024-03-08T14:45:14;18.95;;;12.40;;
49071;SDS011;74284;52.610;10.236;2024-03-08T14:50:05;19.55;;;12.60;;
49071;SDS011;74284;52.610;10.236;2024-03-08T14:52:32;16.92;;;12.63;;
49071;SDS011;74284;52.610;10.236;2024-03-08T14:57:23;20.80;;;14.23;;
49071;SDS011;74284;52.610;10.236;2024-03-08T14:59:48;21.63;;;13.43;;
49071;SDS011;74284;52.610;10.236;2024-03-08T15:04:39;20.05;;;14.38;;
49071;SDS011;74284;52.610;10.236;2024-03-08T15:07:06;20.38;;;14.80;;
49071;SDS011;74284;52.610;10.236;2024-03-08T15:09:44;19.17;;;14.30;;
49071;SDS011;74284;52.610;10.236;2024-03-08T15:14:39;23.10;;;15.48;;
49071;SDS011;74284;52.610;10.236;2024-03-08T15:17:05;22.45;;;15.80;;
49071;SDS011;74284;52.610;10.236;2024-03-08T15:19:35;22.25;;;14.95;;
49071;SDS011;74284;52.610;10.236;2024-03-08T15:24:26;23.00;;;15.45;;
49071;SDS011;74284;52.610;10.236;2024-03-08T15:29:20;22.00;;;14.30;;
49071;SDS011;74284;52.610;10.236;2024-03-08T15:31:51;20.35;;;14.20;;
49071;SDS011;74284;52.610;10.236;2024-03-08T15:34:18;20.45;;;14.70;;
49071;SDS011;74284;52.610;10.236;2024-03-08T15:36:48;23.15;;;15.15;;